createdAt,value
2019-05-03T00:02:07.923Z,9.00
2019-05-03T00:04:34.632Z,9.00
2019-05-03T00:07:02.698Z,8.90
2019-05-03T00:09:29.715Z,8.90
2019-05-03T00:11:56.441Z,8.60
2019-05-03T00:14:23.350Z,8.50
2019-05-03T00:16:52.097Z,8.50
2019-05-03T00:19:18.622Z,8.40
2019-05-03T00:21:45.419Z,8.40
2019-05-03T00:24:12.153Z,8.40
2019-05-03T00:26:38.972Z,8.40
2019-05-03T00:29:05.707Z,8.50
2019-05-03T00:31:32.449Z,8.50
2019-05-03T00:33:59.230Z,8.50
2019-05-03T00:36:25.931Z,8.40
2019-05-03T00:38:52.775Z,8.40
2019-05-03T00:41:21.468Z,8.40
2019-05-03T00:43:48.075Z,8.40
2019-05-03T00:46:14.856Z,8.40
2019-05-03T00:48:43.029Z,8.30
2019-05-03T00:51:11.731Z,8.30
2019-05-03T00:53:38.524Z,8.40
2019-05-03T00:56:05.285Z,8.50
2019-05-03T00:58:32.070Z,8.50
2019-05-03T01:00:58.815Z,8.50
2019-05-03T01:03:25.564Z,8.50
2019-05-03T01:05:52.956Z,8.50
2019-05-03T01:08:21.889Z,8.40
2019-05-03T01:10:48.484Z,8.40
2019-05-03T01:13:15.320Z,8.30
2019-05-03T01:15:42.390Z,8.30
2019-05-03T01:18:09.210Z,8.30
2019-05-03T01:20:36.165Z,8.20
2019-05-03T01:23:02.899Z,8.30
2019-05-03T01:25:33.081Z,8.30
2019-05-03T01:27:58.214Z,8.30
2019-05-03T01:30:24.946Z,8.30
2019-05-03T01:32:52.370Z,8.20
2019-05-03T01:35:19.257Z,8.30
2019-05-03T01:37:46.057Z,8.30
2019-05-03T01:40:12.857Z,8.30
2019-05-03T01:42:39.645Z,8.30
2019-05-03T01:45:06.548Z,8.20
2019-05-03T01:47:33.277Z,8.00
2019-05-03T01:50:00.044Z,8.00
2019-05-03T01:52:26.795Z,8.00
2019-05-03T01:54:53.605Z,8.00
2019-05-03T01:57:21.945Z,7.90
2019-05-03T01:59:48.915Z,7.80
2019-05-03T02:02:15.648Z,7.90
2019-05-03T02:04:42.459Z,7.80
2019-05-03T02:07:09.243Z,7.80
2019-05-03T02:09:36.048Z,7.90
2019-05-03T02:12:03.297Z,7.70
2019-05-03T02:14:31.719Z,7.90
2019-05-03T02:16:58.538Z,7.80
2019-05-03T02:19:25.355Z,7.80
2019-05-03T02:21:52.442Z,7.80
2019-05-03T02:24:19.560Z,7.60
2019-05-03T02:26:46.288Z,7.60
2019-05-03T02:29:13.081Z,7.70
2019-05-03T02:31:39.791Z,7.60
2019-05-03T02:34:06.575Z,7.60
2019-05-03T02:36:33.875Z,7.70
2019-05-03T02:39:02.899Z,7.70
2019-05-03T02:41:29.493Z,7.70
2019-05-03T02:43:56.277Z,7.70
2019-05-03T02:46:25.185Z,7.60
2019-05-03T02:48:51.545Z,7.60
2019-05-03T02:51:18.290Z,7.60
2019-05-03T02:53:45.801Z,7.60
2019-05-03T02:56:20.949Z,7.60
2019-05-03T02:58:41.184Z,7.60
2019-05-03T03:01:08.000Z,7.60
2019-05-03T03:03:36.232Z,7.60
2019-05-03T03:06:06.739Z,7.60
2019-05-03T03:08:36.701Z,7.50
2019-05-03T03:11:07.371Z,7.50
2019-05-03T03:13:37.389Z,7.40
2019-05-03T03:16:09.198Z,7.40
2019-05-03T03:18:39.012Z,7.30
2019-05-03T03:21:09.326Z,7.20
2019-05-03T03:23:47.310Z,7.30
2019-05-03T03:26:33.338Z,7.20
2019-05-03T03:28:55.698Z,7.10
2019-05-03T03:31:29.414Z,7.00
2019-05-03T03:34:01.621Z,6.80
2019-05-03T03:36:46.194Z,6.80
2019-05-03T03:39:00.336Z,6.80
2019-05-03T03:41:29.548Z,6.80
2019-05-03T03:43:57.395Z,6.70
2019-05-03T03:46:26.929Z,6.80
2019-05-03T03:48:56.039Z,6.80
2019-05-03T03:51:26.139Z,6.80
2019-05-03T03:53:55.454Z,6.80
2019-05-03T03:56:25.552Z,6.80
2019-05-03T03:58:52.155Z,6.80
2019-05-03T04:01:19.378Z,6.80
2019-05-03T04:03:46.196Z,6.70
2019-05-03T04:06:15.372Z,6.70
2019-05-03T04:08:45.114Z,6.70
2019-05-03T04:11:11.096Z,6.70
2019-05-03T04:13:37.849Z,6.70
2019-05-03T04:16:05.508Z,6.70
2019-05-03T04:18:32.551Z,6.80
2019-05-03T04:20:59.551Z,6.80
2019-05-03T04:23:27.007Z,6.80
2019-05-03T04:25:56.683Z,6.80
2019-05-03T04:28:25.372Z,6.80
2019-05-03T04:30:51.182Z,6.70
2019-05-03T04:33:17.981Z,6.80
2019-05-03T04:35:46.486Z,6.80
2019-05-03T04:38:16.043Z,6.70
2019-05-03T04:40:41.988Z,6.70
2019-05-03T04:43:08.725Z,6.70
2019-05-03T04:45:36.671Z,6.60
2019-05-03T04:48:05.936Z,6.60
2019-05-03T04:50:36.363Z,6.60
2019-05-03T04:53:05.513Z,6.60
2019-05-03T04:55:31.071Z,6.60
2019-05-03T04:57:57.816Z,6.60
2019-05-03T05:00:25.589Z,6.60
2019-05-03T05:02:55.597Z,6.70
2019-05-03T05:05:22.375Z,6.70
2019-05-03T05:07:49.169Z,6.60
2019-05-03T05:10:15.900Z,6.60
2019-05-03T05:12:42.619Z,6.60
2019-05-03T05:15:09.595Z,6.70
2019-05-03T05:17:36.355Z,6.70
2019-05-03T05:20:05.466Z,6.70
2019-05-03T05:22:32.182Z,6.70
2019-05-03T05:24:58.919Z,6.80
2019-05-03T05:27:25.811Z,6.80
2019-05-03T05:29:52.560Z,6.80
2019-05-03T05:32:19.315Z,6.80
2019-05-03T05:34:46.261Z,6.80
2019-05-03T05:37:14.540Z,6.80
2019-05-03T05:39:41.361Z,6.80
2019-05-03T05:42:08.218Z,6.80
2019-05-03T05:44:35.275Z,6.80
2019-05-03T05:47:02.057Z,6.90
2019-05-03T05:49:28.976Z,6.90
2019-05-03T05:51:55.682Z,6.90
2019-05-03T05:54:24.532Z,7.00
2019-05-03T05:56:51.080Z,7.00
2019-05-03T05:59:17.803Z,7.10
2019-05-03T06:01:45.676Z,7.10
2019-05-03T06:04:12.424Z,7.10
2019-05-03T06:06:39.389Z,7.00
2019-05-03T06:09:06.745Z,7.00
2019-05-03T06:11:34.744Z,7.00
2019-05-03T06:14:01.672Z,7.00
2019-05-03T06:16:28.385Z,7.00
2019-05-03T06:18:55.236Z,7.10
2019-05-03T06:21:21.983Z,7.10
2019-05-03T06:23:48.725Z,7.10
2019-05-03T06:26:15.694Z,7.20
2019-05-03T06:28:42.374Z,7.20
2019-05-03T06:31:09.091Z,7.20
2019-05-03T06:33:35.881Z,7.30
2019-05-03T06:36:04.841Z,7.30
2019-05-03T06:38:31.664Z,7.30
2019-05-03T06:40:58.392Z,7.30
2019-05-03T06:43:25.145Z,7.30
2019-05-03T06:45:51.956Z,7.40
2019-05-03T06:48:22.415Z,7.50
2019-05-03T06:50:47.229Z,7.50
2019-05-03T06:53:15.527Z,7.50
2019-05-03T06:55:45.479Z,7.60
2019-05-03T06:58:10.993Z,7.70
2019-05-03T07:00:37.859Z,7.70
2019-05-03T07:03:04.978Z,7.80
2019-05-03T07:05:31.930Z,7.70
2019-05-03T07:07:58.730Z,7.80
2019-05-03T07:10:25.457Z,7.70
2019-05-03T07:12:52.739Z,7.80
2019-05-03T07:15:20.805Z,7.90
2019-05-03T07:17:47.513Z,8.00
2019-05-03T07:20:14.797Z,8.10
2019-05-03T07:22:41.737Z,8.10
2019-05-03T07:25:08.552Z,8.20
2019-05-03T07:27:35.265Z,8.30
2019-05-03T07:30:05.151Z,8.30
2019-05-03T07:32:31.871Z,8.40
2019-05-03T07:34:58.609Z,8.30
2019-05-03T07:37:25.469Z,8.30
2019-05-03T07:39:52.237Z,8.30
2019-05-03T07:42:19.000Z,8.50
2019-05-03T07:44:45.735Z,8.40
2019-05-03T07:47:12.483Z,8.50
2019-05-03T07:49:39.964Z,8.60
2019-05-03T07:52:06.836Z,8.70
2019-05-03T07:54:34.872Z,8.70
2019-05-03T07:57:01.880Z,8.80
2019-05-03T07:59:28.629Z,8.90
2019-05-03T08:01:55.482Z,8.80
2019-05-03T08:04:22.231Z,8.80
2019-05-03T08:06:48.964Z,8.60
2019-05-03T08:09:15.762Z,8.50
2019-05-03T08:11:44.310Z,8.60
2019-05-03T08:14:11.032Z,8.70
2019-05-03T08:16:37.796Z,8.90
2019-05-03T08:19:05.000Z,9.00
2019-05-03T08:21:31.995Z,9.10
2019-05-03T08:23:58.745Z,9.30
2019-05-03T08:26:25.905Z,9.30
2019-05-03T08:28:54.483Z,9.40
2019-05-03T08:31:23.890Z,9.50
2019-05-03T08:33:49.897Z,9.60
2019-05-03T08:36:16.618Z,9.70
2019-05-03T08:38:45.151Z,9.50
2019-05-03T08:41:11.993Z,9.60
2019-05-03T08:43:38.761Z,9.70
2019-05-03T08:46:05.529Z,9.80
2019-05-03T08:48:32.258Z,9.80
2019-05-03T08:50:59.070Z,9.80
2019-05-03T08:53:25.861Z,9.90
2019-05-03T08:55:52.595Z,10.00
2019-05-03T08:58:19.430Z,10.00
2019-05-03T09:00:46.156Z,10.10
2019-05-03T09:03:14.416Z,10.20
2019-05-03T09:05:41.421Z,10.30
2019-05-03T09:08:08.165Z,10.30
2019-05-03T09:10:35.286Z,10.40
2019-05-03T09:13:05.533Z,10.40
2019-05-03T09:15:30.609Z,10.50
2019-05-03T09:17:57.397Z,10.60
2019-05-03T09:20:25.082Z,10.50
2019-05-03T09:22:52.017Z,10.30
2019-05-03T09:25:18.753Z,10.50
2019-05-03T09:27:45.502Z,10.50
2019-05-03T09:30:14.484Z,10.50
2019-05-03T09:32:41.555Z,10.60
2019-05-03T09:35:27.190Z,10.60
2019-05-03T09:37:41.086Z,10.70
2019-05-03T09:40:07.867Z,10.80
2019-05-03T09:42:35.237Z,10.80
2019-05-03T09:45:04.924Z,10.80
2019-05-03T09:47:31.742Z,10.90
2019-05-03T09:49:58.639Z,10.90
2019-05-03T09:52:25.399Z,11.00
2019-05-03T09:54:54.642Z,11.00
2019-05-03T09:57:20.914Z,11.10
2019-05-03T09:59:56.503Z,11.10
2019-05-03T10:02:16.194Z,11.20
2019-05-03T10:04:44.587Z,11.20
2019-05-03T10:07:11.713Z,11.20
2019-05-03T10:09:38.466Z,11.30
2019-05-03T10:12:05.553Z,11.30
2019-05-03T10:14:32.430Z,11.30
2019-05-03T10:16:59.156Z,11.30
2019-05-03T10:19:36.627Z,11.30
2019-05-03T10:21:54.471Z,11.40
2019-05-03T10:24:21.290Z,11.50
2019-05-03T10:26:48.025Z,11.40
2019-05-03T10:29:15.287Z,11.50
2019-05-03T10:31:42.029Z,11.60
2019-05-03T10:34:08.794Z,11.60
2019-05-03T10:36:35.708Z,11.70
2019-05-03T10:39:04.818Z,11.60
2019-05-03T10:41:31.695Z,11.70
2019-05-03T10:43:58.610Z,11.70
2019-05-03T10:46:25.594Z,11.60
2019-05-03T10:48:52.341Z,11.60
2019-05-03T10:51:19.179Z,11.70
2019-05-03T10:53:45.951Z,11.70
2019-05-03T10:56:13.925Z,11.60
2019-05-03T10:58:41.306Z,11.60
2019-05-03T11:01:08.029Z,11.40
2019-05-03T11:03:34.810Z,11.40
2019-05-03T11:06:01.695Z,11.30
2019-05-03T11:08:28.445Z,11.30
2019-05-03T11:10:55.171Z,11.30
2019-05-03T11:13:22.031Z,11.20
2019-05-03T11:15:49.062Z,11.20
2019-05-03T11:18:15.933Z,11.10
2019-05-03T11:20:42.882Z,11.00
2019-05-03T11:23:09.618Z,11.00
2019-05-03T11:25:36.478Z,11.10
2019-05-03T11:28:04.885Z,11.20
2019-05-03T11:30:31.807Z,11.30
2019-05-03T11:32:58.693Z,11.40
2019-05-03T11:35:25.416Z,11.60
2019-05-03T11:37:52.179Z,11.80
2019-05-03T11:40:19.090Z,12.10
2019-05-03T11:42:45.862Z,12.10
2019-05-03T11:45:15.160Z,11.90
2019-05-03T11:47:41.762Z,11.90
2019-05-03T11:50:08.704Z,12.10
2019-05-03T11:52:35.730Z,12.40
2019-05-03T11:55:11.427Z,12.50
2019-05-03T11:57:35.708Z,12.40
2019-05-03T12:00:06.220Z,12.30
2019-05-03T12:02:33.108Z,12.20
2019-05-03T12:04:59.920Z,12.00
2019-05-03T12:07:38.616Z,11.90
2019-05-03T12:09:55.215Z,11.80
2019-05-03T12:12:21.955Z,11.70
2019-05-03T12:14:48.815Z,11.50
2019-05-03T12:17:20.849Z,11.30
2019-05-03T12:19:46.897Z,11.30
2019-05-03T12:22:14.074Z,11.30
2019-05-03T12:24:42.569Z,11.30
2019-05-03T12:27:10.070Z,11.20
2019-05-03T12:29:37.023Z,11.00
2019-05-03T12:32:05.278Z,10.90
2019-05-03T12:34:32.179Z,11.00
2019-05-03T12:36:58.970Z,10.90
2019-05-03T12:39:30.044Z,10.90
2019-05-03T12:41:55.012Z,10.80
2019-05-03T12:44:21.838Z,10.90
2019-05-03T12:46:48.569Z,11.00
2019-05-03T12:49:15.600Z,10.90
2019-05-03T12:51:42.271Z,10.90
2019-05-03T12:54:09.035Z,10.80
2019-05-03T12:56:35.960Z,10.90
2019-05-03T12:59:02.751Z,11.00
2019-05-03T13:01:40.861Z,11.00
2019-05-03T13:04:00.147Z,11.00
2019-05-03T13:06:26.882Z,11.00
2019-05-03T13:08:54.828Z,11.00
2019-05-03T13:11:21.784Z,10.90
2019-05-03T13:13:48.522Z,10.80
2019-05-03T13:16:15.405Z,10.80
2019-05-03T13:18:42.532Z,10.80
2019-05-03T13:21:09.269Z,10.70
2019-05-03T13:23:36.331Z,10.80
2019-05-03T13:26:05.656Z,10.70
2019-05-03T13:28:32.076Z,10.80
2019-05-03T13:30:58.799Z,10.70
2019-05-03T13:33:25.597Z,10.80
2019-05-03T13:35:52.406Z,10.80
2019-05-03T13:38:19.220Z,10.70
2019-05-03T13:40:46.384Z,10.70
2019-05-03T13:43:15.047Z,10.70
2019-05-03T13:45:41.777Z,10.70
2019-05-03T13:48:08.627Z,10.70
2019-05-03T13:50:35.439Z,10.70
2019-05-03T13:53:02.323Z,10.70
2019-05-03T13:55:29.087Z,10.60
2019-05-03T13:57:55.811Z,10.50
2019-05-03T14:00:24.531Z,10.50
2019-05-03T14:02:51.301Z,10.40
2019-05-03T14:05:18.030Z,10.40
2019-05-03T14:07:44.828Z,10.50
2019-05-03T14:10:12.276Z,10.40
2019-05-03T14:12:39.261Z,10.40
2019-05-03T14:15:06.757Z,10.50
2019-05-03T14:17:33.472Z,10.50
2019-05-03T14:20:00.240Z,10.50
2019-05-03T14:22:26.995Z,10.50
2019-05-03T14:24:53.738Z,10.50
2019-05-03T14:27:21.630Z,10.30
2019-05-03T14:29:48.356Z,10.20
2019-05-03T14:32:25.720Z,10.20
2019-05-03T14:34:45.382Z,10.20
2019-05-03T14:37:12.251Z,10.10
2019-05-03T14:39:39.010Z,10.10
2019-05-03T14:42:05.781Z,10.10
2019-05-03T14:44:32.671Z,10.00
2019-05-03T14:46:59.403Z,10.00
2019-05-03T14:49:26.176Z,9.90
2019-05-03T14:52:14.618Z,10.00
2019-05-03T14:54:41.264Z,10.00
2019-05-03T14:57:07.995Z,10.10
2019-05-03T14:59:34.786Z,10.20
2019-05-03T15:02:01.556Z,10.20
2019-05-03T15:04:28.250Z,10.10
2019-05-03T15:06:57.729Z,10.10
2019-05-03T15:09:25.142Z,10.10
2019-05-03T15:11:51.974Z,10.10
2019-05-03T15:14:18.790Z,9.80
2019-05-03T15:16:45.754Z,9.80
2019-05-03T15:19:14.648Z,9.80
2019-05-03T15:21:41.187Z,9.70
2019-05-03T15:24:07.907Z,9.80
2019-05-03T15:26:35.639Z,9.80
2019-05-03T15:29:04.722Z,9.70
2019-05-03T15:31:31.134Z,9.60
2019-05-03T15:33:57.848Z,9.60
2019-05-03T15:36:24.748Z,9.50
2019-05-03T15:38:51.485Z,9.50
2019-05-03T15:41:18.294Z,9.50
2019-05-03T15:43:45.462Z,9.40
2019-05-03T15:46:14.597Z,9.30
2019-05-03T15:48:42.692Z,9.40
2019-05-03T15:51:09.478Z,9.40
2019-05-03T15:53:36.298Z,9.30
2019-05-03T15:56:05.239Z,9.40
2019-05-03T15:58:31.692Z,9.30
2019-05-03T16:00:58.407Z,9.30
2019-05-03T16:03:25.392Z,9.30
2019-05-03T16:05:52.356Z,9.30
2019-05-03T16:08:19.101Z,9.30
2019-05-03T16:10:46.125Z,9.30
2019-05-03T16:13:14.303Z,9.30
2019-05-03T16:15:41.310Z,9.30
2019-05-03T16:18:08.054Z,9.20
2019-05-03T16:20:39.146Z,9.10
2019-05-03T16:23:04.970Z,9.10
2019-05-03T16:25:32.004Z,9.20
2019-05-03T16:27:58.890Z,9.10
2019-05-03T16:30:25.679Z,9.10
2019-05-03T16:32:52.453Z,9.10
2019-05-03T16:35:19.238Z,9.10
2019-05-03T16:37:45.981Z,9.10
2019-05-03T16:40:14.181Z,9.20
2019-05-03T16:42:41.787Z,9.10
2019-05-03T16:45:08.533Z,9.00
2019-05-03T16:47:35.526Z,9.00
2019-05-03T16:50:06.439Z,9.00
2019-05-03T16:52:34.871Z,9.00
2019-05-03T16:55:03.411Z,8.90
2019-05-03T16:57:30.283Z,9.00
2019-05-03T16:59:57.025Z,8.90
2019-05-03T17:02:26.776Z,9.00
2019-05-03T17:04:55.659Z,8.90
2019-05-03T17:07:22.095Z,8.90
2019-05-03T17:09:48.835Z,8.90
2019-05-03T17:12:15.709Z,8.90
2019-05-03T17:14:42.424Z,8.90
2019-05-03T17:17:09.140Z,8.90
2019-05-03T17:19:36.555Z,8.90
2019-05-03T17:22:05.473Z,8.90
2019-05-03T17:24:32.206Z,8.90
2019-05-03T17:26:59.050Z,8.90
2019-05-03T17:29:25.779Z,8.80
2019-05-03T17:31:52.513Z,8.80
2019-05-03T17:34:19.401Z,8.80
2019-05-03T17:36:46.152Z,8.80
2019-05-03T17:39:12.874Z,8.80
2019-05-03T17:41:39.700Z,8.80
2019-05-03T17:44:06.757Z,8.70
2019-05-03T17:46:34.735Z,8.70
2019-05-03T17:49:01.945Z,8.70
2019-05-03T17:51:29.093Z,8.60
2019-05-03T17:53:55.810Z,8.70
2019-05-03T17:56:24.385Z,8.60
2019-05-03T17:58:51.169Z,8.60
2019-05-03T18:01:17.900Z,8.50
2019-05-03T18:03:44.945Z,8.40
2019-05-03T18:06:11.665Z,8.40
2019-05-03T18:08:38.404Z,8.40
2019-05-03T18:11:05.249Z,8.40
2019-05-03T18:13:32.750Z,8.40
2019-05-03T18:15:59.588Z,8.40
2019-05-03T18:18:26.427Z,8.40
2019-05-03T18:20:53.165Z,8.30
2019-05-03T18:23:19.910Z,8.30
2019-05-03T18:25:46.805Z,8.30
2019-05-03T18:28:14.805Z,8.30
2019-05-03T18:30:41.979Z,8.20
2019-05-03T18:33:08.743Z,8.20
2019-05-03T18:35:35.489Z,8.20
2019-05-03T18:38:02.389Z,8.10
2019-05-03T18:40:32.353Z,8.10
2019-05-03T18:42:59.381Z,8.10
2019-05-03T18:45:26.138Z,8.10
2019-05-03T18:47:54.454Z,8.20
2019-05-03T18:50:34.957Z,8.10
2019-05-03T18:52:51.264Z,8.10
2019-05-03T18:55:18.115Z,8.10
2019-05-03T18:57:44.832Z,7.90
2019-05-03T19:00:12.573Z,7.90
2019-05-03T19:02:39.439Z,7.90
2019-05-03T19:05:06.471Z,7.80
2019-05-03T19:07:34.728Z,7.80
2019-05-03T19:10:02.633Z,7.80
2019-05-03T19:12:29.374Z,7.70
2019-05-03T19:14:56.119Z,7.70
2019-05-03T19:17:24.758Z,7.50
2019-05-03T19:19:51.494Z,7.50
2019-05-03T19:22:18.261Z,7.50
2019-05-03T19:24:45.100Z,7.50
2019-05-03T19:27:11.832Z,7.40
2019-05-03T19:29:38.627Z,7.40
2019-05-03T19:32:05.494Z,7.50
2019-05-03T19:34:44.478Z,7.60
2019-05-03T19:37:00.888Z,7.50
2019-05-03T19:39:27.792Z,7.40
2019-05-03T19:41:55.286Z,7.40
2019-05-03T19:44:22.136Z,7.40
2019-05-03T19:46:49.084Z,7.30
2019-05-03T19:49:15.782Z,7.30
2019-05-03T19:51:42.507Z,7.30
2019-05-03T19:54:09.376Z,7.20
2019-05-03T19:56:36.109Z,7.20
2019-05-03T19:59:04.655Z,7.30
2019-05-03T20:01:31.416Z,7.30
2019-05-03T20:03:58.135Z,7.20
2019-05-03T20:06:25.288Z,7.30
2019-05-03T20:08:52.221Z,7.20
2019-05-03T20:11:18.952Z,7.10
2019-05-03T20:13:45.806Z,7.20
2019-05-03T20:16:15.089Z,7.20
2019-05-03T20:18:41.435Z,7.10
2019-05-03T20:21:08.165Z,7.10
2019-05-03T20:23:35.028Z,7.10
2019-05-03T20:26:01.799Z,7.10
2019-05-03T20:28:28.541Z,7.00
2019-05-03T20:30:55.340Z,7.10
2019-05-03T20:33:22.063Z,7.00
2019-05-03T20:35:48.788Z,7.00
2019-05-03T20:38:15.669Z,7.10
2019-05-03T20:40:42.436Z,7.00
2019-05-03T20:43:09.172Z,7.00
2019-05-03T20:45:36.134Z,7.00
2019-05-03T20:48:05.259Z,7.00
2019-05-03T20:50:31.673Z,7.00
2019-05-03T20:52:58.554Z,7.00
2019-05-03T20:55:25.751Z,6.90
2019-05-03T20:57:52.540Z,7.00
2019-05-03T21:00:21.229Z,6.90
2019-05-03T21:02:53.827Z,6.90
2019-05-03T21:05:26.621Z,7.00
2019-05-03T21:07:45.975Z,6.90
2019-05-03T21:10:15.668Z,7.00
2019-05-03T21:12:42.623Z,6.90
2019-05-03T21:15:11.009Z,6.90
2019-05-03T21:17:37.733Z,6.90
2019-05-03T21:20:05.449Z,6.90
2019-05-03T21:22:32.245Z,6.80
2019-05-03T21:24:58.980Z,6.80
2019-05-03T21:27:25.719Z,6.80
2019-05-03T21:29:54.801Z,6.80
2019-05-03T21:32:21.136Z,6.80
2019-05-03T21:34:47.962Z,6.70
2019-05-03T21:37:15.143Z,6.80
2019-05-03T21:39:41.958Z,6.80
2019-05-03T21:42:08.700Z,6.80
2019-05-03T21:44:35.457Z,6.80
2019-05-03T21:47:02.251Z,6.80
2019-05-03T21:49:29.015Z,6.90
2019-05-03T21:51:55.893Z,6.80
2019-05-03T21:54:24.476Z,6.70
2019-05-03T21:56:51.145Z,6.80
2019-05-03T21:59:17.947Z,6.80
2019-05-03T22:01:45.624Z,6.70
2019-05-03T22:04:12.526Z,6.70
2019-05-03T22:06:39.405Z,6.70
2019-05-03T22:09:06.269Z,6.70
2019-05-03T22:11:32.995Z,6.70
2019-05-03T22:14:01.697Z,6.60
2019-05-03T22:16:28.392Z,6.70
2019-05-03T22:18:55.130Z,6.70
2019-05-03T22:21:21.919Z,6.70
2019-05-03T22:23:48.628Z,6.70
2019-05-03T22:26:15.495Z,6.60
2019-05-03T22:28:44.346Z,6.60
2019-05-03T22:31:10.961Z,6.60
2019-05-03T22:33:37.688Z,6.60
2019-05-03T22:36:08.498Z,6.60
2019-05-03T22:38:36.214Z,6.60
2019-05-03T22:41:01.630Z,6.50
2019-05-03T22:43:28.525Z,6.60
2019-05-03T22:45:55.265Z,6.60
2019-05-03T22:48:22.064Z,6.60
2019-05-03T22:50:48.933Z,6.60
2019-05-03T22:53:15.706Z,6.60
2019-05-03T22:55:42.436Z,6.60
2019-05-03T22:58:09.320Z,6.70
2019-05-03T23:00:36.068Z,6.60
2019-05-03T23:03:02.814Z,6.60
2019-05-03T23:05:29.668Z,6.60
2019-05-03T23:07:56.378Z,6.70
2019-05-03T23:10:23.142Z,6.70
2019-05-03T23:12:49.908Z,6.60
2019-05-03T23:15:16.657Z,6.60
2019-05-03T23:17:45.139Z,6.60
2019-05-03T23:20:12.300Z,6.60
2019-05-03T23:22:39.063Z,6.60
2019-05-03T23:25:06.071Z,6.60
2019-05-03T23:27:35.237Z,6.50
2019-05-03T23:30:01.704Z,6.50
2019-05-03T23:32:28.409Z,6.50
2019-05-03T23:34:55.193Z,6.60
2019-05-03T23:37:21.913Z,6.50
2019-05-03T23:39:48.653Z,6.50
2019-05-03T23:42:15.626Z,6.50
2019-05-03T23:44:42.391Z,6.50
2019-05-03T23:47:09.133Z,6.50
2019-05-03T23:49:35.957Z,6.40
2019-05-03T23:52:04.485Z,6.50
2019-05-03T23:54:31.237Z,6.50
2019-05-03T23:56:58.122Z,6.40
2019-05-03T23:59:24.843Z,6.40
